Pagrindinis puslapis
METAR-TAF:

METAR-TAF

Oro uostai :

Kvala Terenganu, Malaizija

platuma: 05-22-53N, ilguma: 103-06-17E, Aukštis: 6 m

Dabartinis oras

Ataskaita buvo paskelbta 44 minutes, ne 06:00 UTC
Vėjas 9 kt iš Šiaurės
Temperatūra 32°C
Drėgmė 67%
Slėgis 1007 hPa
Matomumas 10 km arba daugiau
Mažai debesys ne aukštis 1700 ft, Liūtiniai kamuoliniai debesys.

METAR: WMKN 010600Z 35009KT 9999 FEW017CB 32/25 Q1007

Laikas: 14:44 (06:44 UTC)

Prognozė

Ataskaita buvo paskelbta 1 valandą ir 44 minutes, ne 05:00 UTC
Prognozė galioja nuo 01 metu 06 UTC su 02 metu 06 UTC
Vėjas 6 kt iš Šiaurės
Matomumas 10 km arba daugiau
Mažai debesys ne aukštis 1800 ft
Tapsmas
nuo 01 metu 11 UTC su 01 metu 12 UTC
Vėjas 3 kt nuo kintamojo kryptimis
Mažai debesys ne aukštis 2200 ft
Tapsmas
nuo 01 metu 23 UTC su 02 metu 01 UTC
Vėjas 6 kt iš Šiaurės/Šiaurės Rytų
Mažai debesys ne aukštis 1800 ft

TAF: WMKN 010500Z 0106/0206 35006KT 9999 FEW018 BECMG 0111/0112 VRB03KT FEW022 BECMG 0123/0201 02006KT FEW018

Orai ataskaitas ir orų prognozės (METAR, TAF).

turimą stotys yra geltonos ir raudonos taškus žemėlapyje.

Perkelti pele per norėdami pamatyti stoties vardą.

Tada spustelėkite, norėdami matyti oro stebėjimo ir prognozės.

Norėdami pakeisti žemėlapį: spustelėkite ant žalios mygtukų su juodo kryžiaus žemyn,; žalią mygtuką su brūkšneliu, jei norite nutolinti; arba žalių rodyklių gretimoms žemėlapius.


METAR-TAF: